DEPIC EDDC-EDML
Flight info
| Callsign | DEPIC |
|---|---|
| Flight time | 1h 17m |
| Altitude | 4500 |
| Route | 510700N0133353E 510323N0132101E 505108N0125031E 504254N0124521E 503543N0122017E 502306N0115850E 501121N0120714E 500048N0120644E 495606N0121326E 494304N0120834E 493105N0120958E 485324N0120437E 483605N0121405E 483223N0121101E DCT 483320N0120339E DCT 483202N0115724E |
| Aircraft | BE36/L-BDFGLORY/S |
Departure
| Time | 2026-05-08 15:20 |
|---|---|
| Airport | Dresden Airport (EDDC) |
Arrival
| Time | 2026-05-08 16:37 |
|---|---|
| Airport | Landshut Airfield (EDML) |
| Time | Latitude | Longitude | Altitude | Speed | Heading |
|---|---|---|---|---|---|
| 2026-05-08 15:05 | 51.12353 | 13.75962 | 705 ft | 0 kts | 314° |
| 2026-05-08 15:15 | 51.12374 | 13.75961 | 699 ft | 7 kts | 42° |
| 2026-05-08 15:16 | 51.12409 | 13.75974 | 699 ft | 6 kts | 306° |
| 2026-05-08 15:16 | 51.12434 | 13.75920 | 705 ft | 6 kts | 284° |
| 2026-05-08 15:16 | 51.12403 | 13.75860 | 705 ft | 9 kts | 220° |
| 2026-05-08 15:16 | 51.12367 | 13.75774 | 705 ft | 11 kts | 268° |
| 2026-05-08 15:17 | 51.12394 | 13.75662 | 705 ft | 10 kts | 294° |
| 2026-05-08 15:17 | 51.12408 | 13.75608 | 705 ft | 0 kts | 290° |
| 2026-05-08 15:18 | 51.12409 | 13.75608 | 705 ft | 0 kts | 290° |
| 2026-05-08 15:18 | 51.12430 | 13.75562 | 705 ft | 10 kts | 311° |
| 2026-05-08 15:19 | 51.12499 | 13.75516 | 707 ft | 13 kts | 24° |
| 2026-05-08 15:19 | 51.12636 | 13.75700 | 702 ft | 51 kts | 39° |
| 2026-05-08 15:19 | 51.13018 | 13.76232 | 737 ft | 86 kts | 41° |
| 2026-05-08 15:19 | 51.13501 | 13.76886 | 846 ft | 98 kts | 24° |
| 2026-05-08 15:20 | 51.14140 | 13.76712 | 1057 ft | 103 kts | 316° |
| 2026-05-08 15:20 | 51.14249 | 13.75545 | 1150 ft | 126 kts | 253° |
| 2026-05-08 15:20 | 51.13938 | 13.74182 | 1356 ft | 131 kts | 257° |
| 2026-05-08 15:20 | 51.13681 | 13.72722 | 1463 ft | 142 kts | 256° |
| 2026-05-08 15:21 | 51.13418 | 13.71231 | 1572 ft | 137 kts | 256° |
| 2026-05-08 15:21 | 51.13213 | 13.69769 | 1678 ft | 134 kts | 260° |
| 2026-05-08 15:21 | 51.13024 | 13.68330 | 1779 ft | 131 kts | 259° |
| 2026-05-08 15:21 | 51.12838 | 13.66921 | 1883 ft | 129 kts | 260° |
| 2026-05-08 15:22 | 51.12659 | 13.65529 | 1982 ft | 128 kts | 260° |
| 2026-05-08 15:22 | 51.12465 | 13.64151 | 2086 ft | 125 kts | 259° |
| 2026-05-08 15:22 | 51.12275 | 13.62816 | 2183 ft | 125 kts | 259° |
| 2026-05-08 15:22 | 51.12007 | 13.61478 | 2283 ft | 126 kts | 249° |
| 2026-05-08 15:23 | 51.11863 | 13.60142 | 2389 ft | 125 kts | 266° |
| 2026-05-08 15:23 | 51.11781 | 13.58762 | 2491 ft | 126 kts | 266° |
| 2026-05-08 15:23 | 51.11710 | 13.57329 | 2498 ft | 133 kts | 266° |
| 2026-05-08 15:23 | 51.11643 | 13.55848 | 2505 ft | 136 kts | 267° |
| 2026-05-08 15:24 | 51.11575 | 13.54328 | 2507 ft | 139 kts | 267° |
| 2026-05-08 15:24 | 51.11283 | 13.52875 | 2507 ft | 140 kts | 242° |
| 2026-05-08 15:24 | 51.10833 | 13.51501 | 2504 ft | 141 kts | 243° |
| 2026-05-08 15:24 | 51.10394 | 13.50151 | 2509 ft | 141 kts | 243° |
| 2026-05-08 15:25 | 51.09941 | 13.48760 | 2508 ft | 142 kts | 243° |
| 2026-05-08 15:25 | 51.09483 | 13.47361 | 2507 ft | 143 kts | 243° |
| 2026-05-08 15:25 | 51.09026 | 13.45965 | 2506 ft | 143 kts | 243° |
| 2026-05-08 15:25 | 51.08582 | 13.44551 | 2504 ft | 142 kts | 245° |
| 2026-05-08 15:26 | 51.08151 | 13.43137 | 2505 ft | 142 kts | 244° |
| 2026-05-08 15:26 | 51.07716 | 13.41723 | 2503 ft | 142 kts | 244° |
| 2026-05-08 15:26 | 51.07280 | 13.40313 | 2500 ft | 142 kts | 244° |
| 2026-05-08 15:26 | 51.06843 | 13.38904 | 2502 ft | 142 kts | 244° |
| 2026-05-08 15:27 | 51.06406 | 13.37497 | 2504 ft | 143 kts | 244° |
| 2026-05-08 15:27 | 51.05967 | 13.36079 | 2503 ft | 143 kts | 244° |
| 2026-05-08 15:27 | 51.05503 | 13.34668 | 2499 ft | 144 kts | 237° |
| 2026-05-08 15:27 | 51.04958 | 13.33332 | 2502 ft | 144 kts | 238° |
| 2026-05-08 15:28 | 51.04427 | 13.31988 | 2506 ft | 144 kts | 239° |
| 2026-05-08 15:28 | 51.03890 | 13.30637 | 2503 ft | 145 kts | 239° |
| 2026-05-08 15:28 | 51.03352 | 13.29276 | 2503 ft | 145 kts | 238° |
| 2026-05-08 15:28 | 51.02807 | 13.27920 | 2497 ft | 145 kts | 239° |
| 2026-05-08 15:29 | 51.02268 | 13.26564 | 2503 ft | 146 kts | 239° |
| 2026-05-08 15:29 | 51.01718 | 13.25183 | 2500 ft | 151 kts | 239° |
| 2026-05-08 15:29 | 51.01136 | 13.23726 | 2505 ft | 160 kts | 239° |
| 2026-05-08 15:29 | 51.00529 | 13.22204 | 2502 ft | 166 kts | 239° |
| 2026-05-08 15:30 | 50.99912 | 13.20665 | 2503 ft | 168 kts | 238° |
| 2026-05-08 15:30 | 50.99272 | 13.19067 | 2507 ft | 169 kts | 238° |
| 2026-05-08 15:30 | 50.98641 | 13.17484 | 2505 ft | 171 kts | 238° |
| 2026-05-08 15:30 | 50.98004 | 13.15896 | 2507 ft | 171 kts | 238° |
| 2026-05-08 15:31 | 50.97367 | 13.14307 | 2512 ft | 171 kts | 238° |
| 2026-05-08 15:31 | 50.96726 | 13.12710 | 2503 ft | 172 kts | 239° |
| 2026-05-08 15:31 | 50.96084 | 13.11109 | 2500 ft | 172 kts | 239° |
| 2026-05-08 15:31 | 50.95443 | 13.09512 | 2500 ft | 172 kts | 238° |
| 2026-05-08 15:32 | 50.94803 | 13.07919 | 2502 ft | 171 kts | 238° |
| 2026-05-08 15:32 | 50.94163 | 13.06328 | 2507 ft | 172 kts | 238° |
| 2026-05-08 15:32 | 50.93514 | 13.04715 | 2504 ft | 174 kts | 239° |
| 2026-05-08 15:32 | 50.92865 | 13.03101 | 2507 ft | 173 kts | 239° |
| 2026-05-08 15:33 | 50.92214 | 13.01485 | 2504 ft | 174 kts | 238° |
| 2026-05-08 15:33 | 50.91566 | 12.99878 | 2500 ft | 171 kts | 238° |
| 2026-05-08 15:33 | 50.90935 | 12.98311 | 2509 ft | 172 kts | 238° |
| 2026-05-08 15:33 | 50.90287 | 12.96705 | 2503 ft | 174 kts | 238° |
| 2026-05-08 15:34 | 50.89629 | 12.95077 | 2503 ft | 173 kts | 238° |
| 2026-05-08 15:34 | 50.88988 | 12.93493 | 2502 ft | 172 kts | 238° |
| 2026-05-08 15:34 | 50.88343 | 12.91897 | 2501 ft | 172 kts | 238° |
| 2026-05-08 15:34 | 50.87700 | 12.90306 | 2502 ft | 171 kts | 238° |
| 2026-05-08 15:35 | 50.87054 | 12.88710 | 2502 ft | 173 kts | 239° |
| 2026-05-08 15:35 | 50.86399 | 12.87092 | 2504 ft | 172 kts | 238° |
| 2026-05-08 15:35 | 50.85766 | 12.85530 | 2494 ft | 170 kts | 239° |
| 2026-05-08 15:35 | 50.84983 | 12.84150 | 2495 ft | 171 kts | 215° |
| 2026-05-08 15:36 | 50.83899 | 12.83353 | 2496 ft | 172 kts | 201° |
| 2026-05-08 15:36 | 50.83143 | 12.82884 | 2497 ft | 173 kts | 201° |
| 2026-05-08 15:36 | 50.81657 | 12.81947 | 2501 ft | 174 kts | 202° |
| 2026-05-08 15:36 | 50.80537 | 12.81245 | 2500 ft | 173 kts | 202° |
| 2026-05-08 15:37 | 50.79419 | 12.80543 | 2502 ft | 172 kts | 202° |
| 2026-05-08 15:37 | 50.78305 | 12.79843 | 2503 ft | 172 kts | 201° |
| 2026-05-08 15:37 | 50.77189 | 12.79143 | 2505 ft | 173 kts | 202° |
| 2026-05-08 15:37 | 50.76056 | 12.78435 | 2505 ft | 176 kts | 202° |
| 2026-05-08 15:38 | 50.74923 | 12.77722 | 2503 ft | 174 kts | 202° |
| 2026-05-08 15:38 | 50.73798 | 12.77018 | 2507 ft | 174 kts | 202° |
| 2026-05-08 15:38 | 50.72672 | 12.76313 | 2500 ft | 174 kts | 202° |
| 2026-05-08 15:38 | 50.71653 | 12.75353 | 2502 ft | 170 kts | 226° |
| 2026-05-08 15:39 | 50.70998 | 12.73826 | 2504 ft | 168 kts | 248° |
| 2026-05-08 15:39 | 50.70525 | 12.72131 | 2499 ft | 169 kts | 248° |
| 2026-05-08 15:39 | 50.70040 | 12.70443 | 2511 ft | 169 kts | 247° |
| 2026-05-08 15:39 | 50.69549 | 12.68723 | 2500 ft | 174 kts | 248° |
| 2026-05-08 15:40 | 50.69062 | 12.67005 | 2585 ft | 169 kts | 247° |
| 2026-05-08 15:40 | 50.68581 | 12.65326 | 2686 ft | 167 kts | 248° |
| 2026-05-08 15:40 | 50.68109 | 12.63655 | 2781 ft | 165 kts | 246° |
| 2026-05-08 15:40 | 50.67642 | 12.62042 | 2877 ft | 162 kts | 247° |
| 2026-05-08 15:41 | 50.67184 | 12.60434 | 2985 ft | 161 kts | 247° |
| 2026-05-08 15:41 | 50.66720 | 12.58808 | 2997 ft | 166 kts | 247° |
| 2026-05-08 15:41 | 50.66242 | 12.57137 | 2999 ft | 168 kts | 248° |
| 2026-05-08 15:41 | 50.65759 | 12.55451 | 3007 ft | 170 kts | 248° |
| 2026-05-08 15:42 | 50.65272 | 12.53748 | 2992 ft | 170 kts | 247° |
| 2026-05-08 15:42 | 50.64784 | 12.52050 | 2998 ft | 170 kts | 248° |
| 2026-05-08 15:42 | 50.64294 | 12.50338 | 2999 ft | 172 kts | 248° |
| 2026-05-08 15:42 | 50.63800 | 12.48620 | 2998 ft | 172 kts | 247° |
| 2026-05-08 15:43 | 50.63303 | 12.46898 | 3000 ft | 174 kts | 248° |
| 2026-05-08 15:43 | 50.62804 | 12.45156 | 3000 ft | 175 kts | 247° |
| 2026-05-08 15:43 | 50.62302 | 12.43414 | 3004 ft | 175 kts | 247° |
| 2026-05-08 15:43 | 50.61799 | 12.41670 | 2999 ft | 175 kts | 249° |
| 2026-05-08 15:44 | 50.61296 | 12.39925 | 2996 ft | 174 kts | 249° |
| 2026-05-08 15:44 | 50.60802 | 12.38210 | 2997 ft | 172 kts | 248° |
| 2026-05-08 15:44 | 50.60304 | 12.36487 | 2999 ft | 173 kts | 248° |
| 2026-05-08 15:44 | 50.59807 | 12.34765 | 3003 ft | 173 kts | 247° |
| 2026-05-08 15:45 | 50.59168 | 12.33161 | 2998 ft | 175 kts | 228° |
| 2026-05-08 15:45 | 50.58335 | 12.31777 | 2999 ft | 177 kts | 229° |
| 2026-05-08 15:45 | 50.57514 | 12.30359 | 3003 ft | 175 kts | 229° |
| 2026-05-08 15:45 | 50.56691 | 12.28946 | 3003 ft | 175 kts | 229° |
| 2026-05-08 15:46 | 50.55867 | 12.27541 | 3003 ft | 174 kts | 229° |
| 2026-05-08 15:46 | 50.55045 | 12.26138 | 3005 ft | 176 kts | 229° |
| 2026-05-08 15:46 | 50.54217 | 12.24727 | 3001 ft | 176 kts | 229° |
| 2026-05-08 15:46 | 50.53390 | 12.23315 | 2999 ft | 174 kts | 229° |
| 2026-05-08 15:47 | 50.52567 | 12.21916 | 3002 ft | 174 kts | 229° |
| 2026-05-08 15:47 | 50.51747 | 12.20517 | 3005 ft | 174 kts | 229° |
| 2026-05-08 15:47 | 50.50921 | 12.19106 | 2995 ft | 176 kts | 229° |
| 2026-05-08 15:47 | 50.50095 | 12.17701 | 2992 ft | 174 kts | 230° |
| 2026-05-08 15:48 | 50.48447 | 12.14899 | 2997 ft | 174 kts | 229° |
| 2026-05-08 15:48 | 50.47616 | 12.13488 | 3001 ft | 176 kts | 228° |
| 2026-05-08 15:48 | 50.46781 | 12.12067 | 3004 ft | 177 kts | 228° |
| 2026-05-08 15:49 | 50.45937 | 12.10639 | 2995 ft | 179 kts | 228° |
| 2026-05-08 15:49 | 50.45091 | 12.09204 | 2999 ft | 179 kts | 228° |
| 2026-05-08 15:49 | 50.44257 | 12.07790 | 2996 ft | 179 kts | 228° |
| 2026-05-08 15:49 | 50.43400 | 12.06337 | 2993 ft | 179 kts | 227° |
| 2026-05-08 15:50 | 50.42556 | 12.04909 | 2989 ft | 178 kts | 228° |
| 2026-05-08 15:50 | 50.41727 | 12.03506 | 2986 ft | 177 kts | 229° |
| 2026-05-08 15:50 | 50.40892 | 12.02096 | 2983 ft | 177 kts | 229° |
| 2026-05-08 15:50 | 50.40055 | 12.00676 | 2978 ft | 177 kts | 229° |
| 2026-05-08 15:51 | 50.39112 | 11.99478 | 2976 ft | 175 kts | 205° |
| 2026-05-08 15:51 | 50.37939 | 11.99007 | 2977 ft | 174 kts | 182° |
| 2026-05-08 15:51 | 50.36760 | 11.99303 | 2974 ft | 172 kts | 158° |
| 2026-05-08 15:51 | 50.35669 | 12.00088 | 2975 ft | 172 kts | 153° |
| 2026-05-08 15:52 | 50.34581 | 12.00862 | 2979 ft | 171 kts | 152° |
| 2026-05-08 15:52 | 50.33491 | 12.01641 | 2979 ft | 173 kts | 153° |
| 2026-05-08 15:52 | 50.32393 | 12.02429 | 2978 ft | 174 kts | 153° |
| 2026-05-08 15:52 | 50.31293 | 12.03217 | 2976 ft | 174 kts | 153° |
| 2026-05-08 15:53 | 50.30195 | 12.03998 | 2974 ft | 172 kts | 152° |
| 2026-05-08 15:53 | 50.29114 | 12.04778 | 2960 ft | 171 kts | 153° |
| 2026-05-08 15:53 | 50.28038 | 12.05548 | 2976 ft | 171 kts | 154° |
| 2026-05-08 15:53 | 50.27318 | 12.06060 | 2975 ft | 171 kts | 154° |
| 2026-05-08 15:54 | 50.26238 | 12.06830 | 2977 ft | 171 kts | 153° |
| 2026-05-08 15:54 | 50.25153 | 12.07606 | 2980 ft | 172 kts | 154° |
| 2026-05-08 15:54 | 50.23693 | 12.08638 | 2982 ft | 173 kts | 154° |
| 2026-05-08 15:54 | 50.22611 | 12.09425 | 2981 ft | 171 kts | 154° |
| 2026-05-08 15:55 | 50.21879 | 12.09943 | 2992 ft | 169 kts | 156° |
| 2026-05-08 15:55 | 50.19794 | 12.11422 | 3191 ft | 161 kts | 155° |
| 2026-05-08 15:55 | 50.18754 | 12.12013 | 3285 ft | 160 kts | 172° |
| 2026-05-08 15:56 | 50.17645 | 12.11979 | 3393 ft | 160 kts | 182° |
| 2026-05-08 15:56 | 50.16525 | 12.11935 | 3475 ft | 162 kts | 181° |
| 2026-05-08 15:56 | 50.15373 | 12.11885 | 3480 ft | 168 kts | 182° |
| 2026-05-08 15:56 | 50.14208 | 12.11829 | 3484 ft | 171 kts | 182° |
| 2026-05-08 15:57 | 50.13010 | 12.11771 | 3487 ft | 172 kts | 182° |
| 2026-05-08 15:57 | 50.11806 | 12.11714 | 3485 ft | 173 kts | 182° |
| 2026-05-08 15:57 | 50.10611 | 12.11656 | 3493 ft | 172 kts | 182° |
| 2026-05-08 15:57 | 50.09410 | 12.11601 | 3494 ft | 173 kts | 182° |
| 2026-05-08 15:58 | 50.08201 | 12.11543 | 3492 ft | 174 kts | 182° |
| 2026-05-08 15:58 | 50.06989 | 12.11486 | 3494 ft | 173 kts | 182° |
| 2026-05-08 15:58 | 50.05778 | 12.11430 | 3486 ft | 174 kts | 182° |
| 2026-05-08 15:58 | 50.04564 | 12.11371 | 3488 ft | 174 kts | 182° |
| 2026-05-08 15:59 | 50.03357 | 12.11313 | 3491 ft | 173 kts | 182° |
| 2026-05-08 15:59 | 50.02148 | 12.11275 | 3487 ft | 174 kts | 177° |
| 2026-05-08 15:59 | 50.01006 | 12.11822 | 3480 ft | 172 kts | 149° |
| 2026-05-08 15:59 | 50.00087 | 12.12995 | 3479 ft | 172 kts | 135° |
| 2026-05-08 16:00 | 49.99208 | 12.14251 | 3478 ft | 171 kts | 136° |
| 2026-05-08 16:00 | 49.98329 | 12.15499 | 3477 ft | 171 kts | 136° |
| 2026-05-08 16:00 | 49.97454 | 12.16747 | 3477 ft | 171 kts | 136° |
| 2026-05-08 16:00 | 49.96582 | 12.17996 | 3478 ft | 171 kts | 135° |
| 2026-05-08 16:01 | 49.95701 | 12.19251 | 3472 ft | 172 kts | 136° |
| 2026-05-08 16:01 | 49.94820 | 12.20503 | 3472 ft | 172 kts | 136° |
| 2026-05-08 16:01 | 49.93876 | 12.21588 | 3471 ft | 173 kts | 155° |
| 2026-05-08 16:01 | 49.92710 | 12.21974 | 3475 ft | 173 kts | 180° |
| 2026-05-08 16:02 | 49.91532 | 12.21642 | 3493 ft | 172 kts | 194° |
| 2026-05-08 16:02 | 49.90370 | 12.21210 | 3494 ft | 172 kts | 194° |
| 2026-05-08 16:02 | 49.89184 | 12.20770 | 3401 ft | 177 kts | 194° |
| 2026-05-08 16:02 | 49.87979 | 12.20318 | 3305 ft | 179 kts | 194° |
| 2026-05-08 16:03 | 49.86761 | 12.19862 | 3201 ft | 182 kts | 194° |
| 2026-05-08 16:03 | 49.85522 | 12.19398 | 3100 ft | 184 kts | 195° |
| 2026-05-08 16:03 | 49.84280 | 12.18933 | 3001 ft | 183 kts | 194° |
| 2026-05-08 16:03 | 49.83057 | 12.18478 | 2989 ft | 180 kts | 194° |
| 2026-05-08 16:04 | 49.81841 | 12.18021 | 2976 ft | 179 kts | 194° |
| 2026-05-08 16:04 | 49.80626 | 12.17564 | 2978 ft | 179 kts | 194° |
| 2026-05-08 16:04 | 49.79420 | 12.17117 | 2983 ft | 178 kts | 194° |
| 2026-05-08 16:04 | 49.78209 | 12.16680 | 2978 ft | 177 kts | 194° |
| 2026-05-08 16:05 | 49.77016 | 12.16226 | 2976 ft | 176 kts | 194° |
| 2026-05-08 16:05 | 49.75819 | 12.15776 | 2979 ft | 178 kts | 195° |
| 2026-05-08 16:05 | 49.74606 | 12.15320 | 2975 ft | 181 kts | 193° |
| 2026-05-08 16:05 | 49.73371 | 12.14889 | 2984 ft | 183 kts | 193° |
| 2026-05-08 16:06 | 49.72122 | 12.14430 | 2981 ft | 185 kts | 191° |
| 2026-05-08 16:06 | 49.70841 | 12.14372 | 2963 ft | 184 kts | 174° |
| 2026-05-08 16:06 | 49.69573 | 12.14528 | 2962 ft | 180 kts | 176° |
| 2026-05-08 16:06 | 49.68340 | 12.14670 | 2969 ft | 177 kts | 175° |
| 2026-05-08 16:07 | 49.67121 | 12.14816 | 2967 ft | 175 kts | 175° |
| 2026-05-08 16:07 | 49.65910 | 12.14961 | 2965 ft | 174 kts | 176° |
| 2026-05-08 16:07 | 49.64702 | 12.15103 | 2966 ft | 174 kts | 176° |
| 2026-05-08 16:07 | 49.63492 | 12.15244 | 2969 ft | 174 kts | 176° |
| 2026-05-08 16:08 | 49.62276 | 12.15387 | 2969 ft | 175 kts | 176° |
| 2026-05-08 16:08 | 49.61051 | 12.15528 | 2972 ft | 178 kts | 176° |
| 2026-05-08 16:08 | 49.59822 | 12.15679 | 2971 ft | 180 kts | 175° |
| 2026-05-08 16:08 | 49.58577 | 12.15821 | 2971 ft | 179 kts | 175° |
| 2026-05-08 16:09 | 49.57331 | 12.15965 | 2977 ft | 179 kts | 175° |
| 2026-05-08 16:09 | 49.56094 | 12.16112 | 2967 ft | 178 kts | 175° |
| 2026-05-08 16:09 | 49.54872 | 12.16253 | 2969 ft | 174 kts | 175° |
| 2026-05-08 16:09 | 49.53662 | 12.16396 | 2974 ft | 174 kts | 175° |
| 2026-05-08 16:10 | 49.52447 | 12.16538 | 2975 ft | 176 kts | 175° |
| 2026-05-08 16:10 | 49.51223 | 12.16550 | 2978 ft | 176 kts | 186° |
| 2026-05-08 16:10 | 49.49993 | 12.16352 | 2983 ft | 178 kts | 186° |
| 2026-05-08 16:10 | 49.48757 | 12.16171 | 2981 ft | 178 kts | 185° |
| 2026-05-08 16:11 | 49.47519 | 12.15997 | 2984 ft | 179 kts | 185° |
| 2026-05-08 16:11 | 49.46289 | 12.15820 | 2980 ft | 176 kts | 185° |
| 2026-05-08 16:11 | 49.45069 | 12.15644 | 2985 ft | 177 kts | 186° |
| 2026-05-08 16:11 | 49.43849 | 12.15470 | 2979 ft | 177 kts | 185° |
| 2026-05-08 16:12 | 49.42617 | 12.15295 | 2986 ft | 179 kts | 185° |
| 2026-05-08 16:12 | 49.41357 | 12.15110 | 2996 ft | 185 kts | 184° |
| 2026-05-08 16:12 | 49.40064 | 12.14882 | 2948 ft | 190 kts | 188° |
| 2026-05-08 16:12 | 49.38766 | 12.14624 | 3006 ft | 189 kts | 181° |
| 2026-05-08 16:13 | 49.37446 | 12.14528 | 3002 ft | 189 kts | 184° |
| 2026-05-08 16:13 | 49.36136 | 12.14432 | 2963 ft | 188 kts | 182° |
| 2026-05-08 16:13 | 49.34835 | 12.14247 | 2858 ft | 186 kts | 186° |
| 2026-05-08 16:13 | 49.33560 | 12.14028 | 2753 ft | 183 kts | 187° |
| 2026-05-08 16:14 | 49.32303 | 12.13820 | 2654 ft | 181 kts | 185° |
| 2026-05-08 16:14 | 49.31057 | 12.13643 | 2546 ft | 181 kts | 184° |
| 2026-05-08 16:14 | 49.29791 | 12.13490 | 2491 ft | 182 kts | 186° |
| 2026-05-08 16:14 | 49.28550 | 12.13259 | 2497 ft | 177 kts | 185° |
| 2026-05-08 16:15 | 49.27352 | 12.13107 | 2492 ft | 172 kts | 185° |
| 2026-05-08 16:15 | 49.26168 | 12.12946 | 2500 ft | 169 kts | 186° |
| 2026-05-08 16:15 | 49.24993 | 12.12778 | 2486 ft | 169 kts | 186° |
| 2026-05-08 16:15 | 49.23830 | 12.12612 | 2494 ft | 166 kts | 185° |
| 2026-05-08 16:16 | 49.22674 | 12.12448 | 2494 ft | 167 kts | 186° |
| 2026-05-08 16:16 | 49.21509 | 12.12282 | 2483 ft | 169 kts | 186° |
| 2026-05-08 16:16 | 49.20336 | 12.12115 | 2478 ft | 170 kts | 185° |
| 2026-05-08 16:16 | 49.19161 | 12.11947 | 2494 ft | 169 kts | 185° |
| 2026-05-08 16:17 | 49.17987 | 12.11785 | 2501 ft | 171 kts | 185° |
| 2026-05-08 16:17 | 49.17194 | 12.11672 | 2498 ft | 173 kts | 186° |
| 2026-05-08 16:17 | 49.15581 | 12.11442 | 2498 ft | 175 kts | 185° |
| 2026-05-08 16:17 | 49.14355 | 12.11271 | 2496 ft | 177 kts | 186° |
| 2026-05-08 16:18 | 49.13128 | 12.11094 | 2489 ft | 180 kts | 186° |
| 2026-05-08 16:18 | 49.11884 | 12.10906 | 2497 ft | 179 kts | 185° |
| 2026-05-08 16:18 | 49.10645 | 12.10744 | 2496 ft | 178 kts | 184° |
| 2026-05-08 16:18 | 49.09416 | 12.10578 | 2493 ft | 176 kts | 186° |
| 2026-05-08 16:19 | 49.08204 | 12.10399 | 2494 ft | 174 kts | 185° |
| 2026-05-08 16:19 | 49.06997 | 12.10233 | 2502 ft | 175 kts | 184° |
| 2026-05-08 16:19 | 49.05766 | 12.10054 | 2495 ft | 179 kts | 186° |
| 2026-05-08 16:19 | 49.04518 | 12.09876 | 2491 ft | 180 kts | 186° |
| 2026-05-08 16:20 | 49.03284 | 12.09700 | 2490 ft | 177 kts | 186° |
| 2026-05-08 16:20 | 49.02067 | 12.09532 | 2491 ft | 175 kts | 186° |
| 2026-05-08 16:20 | 49.00861 | 12.09363 | 2493 ft | 173 kts | 186° |
| 2026-05-08 16:20 | 48.99660 | 12.09192 | 2491 ft | 172 kts | 186° |
| 2026-05-08 16:21 | 48.98477 | 12.09027 | 2489 ft | 169 kts | 185° |
| 2026-05-08 16:21 | 48.97319 | 12.08864 | 2493 ft | 169 kts | 185° |
| 2026-05-08 16:21 | 48.96143 | 12.08697 | 2488 ft | 169 kts | 185° |
| 2026-05-08 16:21 | 48.94977 | 12.08534 | 2487 ft | 167 kts | 184° |
| 2026-05-08 16:22 | 48.93823 | 12.08373 | 2485 ft | 167 kts | 185° |
| 2026-05-08 16:22 | 48.92665 | 12.08210 | 2483 ft | 168 kts | 185° |
| 2026-05-08 16:22 | 48.91500 | 12.08046 | 2484 ft | 169 kts | 186° |
| 2026-05-08 16:22 | 48.90331 | 12.07883 | 2494 ft | 168 kts | 185° |
| 2026-05-08 16:23 | 48.89164 | 12.07756 | 2489 ft | 169 kts | 177° |
| 2026-05-08 16:23 | 48.88045 | 12.08223 | 2498 ft | 168 kts | 158° |
| 2026-05-08 16:23 | 48.86949 | 12.08826 | 2495 ft | 167 kts | 159° |
| 2026-05-08 16:23 | 48.85860 | 12.09417 | 2496 ft | 165 kts | 159° |
| 2026-05-08 16:24 | 48.84777 | 12.10015 | 2501 ft | 166 kts | 160° |
| 2026-05-08 16:24 | 48.83690 | 12.10610 | 2501 ft | 166 kts | 159° |
| 2026-05-08 16:24 | 48.82604 | 12.11210 | 2500 ft | 166 kts | 159° |
| 2026-05-08 16:24 | 48.81521 | 12.11800 | 2496 ft | 165 kts | 160° |
| 2026-05-08 16:25 | 48.80435 | 12.12396 | 2501 ft | 166 kts | 159° |
| 2026-05-08 16:25 | 48.79342 | 12.12997 | 2505 ft | 169 kts | 159° |
| 2026-05-08 16:25 | 48.78235 | 12.13603 | 2499 ft | 170 kts | 158° |
| 2026-05-08 16:25 | 48.77125 | 12.14211 | 2501 ft | 170 kts | 159° |
| 2026-05-08 16:26 | 48.76011 | 12.14819 | 2500 ft | 171 kts | 159° |
| 2026-05-08 16:26 | 48.74898 | 12.15428 | 2500 ft | 170 kts | 157° |
| 2026-05-08 16:26 | 48.73775 | 12.16041 | 2496 ft | 173 kts | 159° |
| 2026-05-08 16:26 | 48.72635 | 12.16664 | 2496 ft | 176 kts | 158° |
| 2026-05-08 16:27 | 48.71496 | 12.17286 | 2495 ft | 173 kts | 159° |
| 2026-05-08 16:27 | 48.70378 | 12.17898 | 2490 ft | 169 kts | 159° |
| 2026-05-08 16:27 | 48.69276 | 12.18499 | 2494 ft | 169 kts | 159° |
| 2026-05-08 16:27 | 48.68165 | 12.19099 | 2490 ft | 169 kts | 158° |
| 2026-05-08 16:28 | 48.67066 | 12.19700 | 2485 ft | 168 kts | 159° |
| 2026-05-08 16:28 | 48.65955 | 12.20309 | 2488 ft | 170 kts | 158° |
| 2026-05-08 16:28 | 48.64845 | 12.20911 | 2491 ft | 168 kts | 158° |
| 2026-05-08 16:28 | 48.63739 | 12.21517 | 2492 ft | 170 kts | 158° |
| 2026-05-08 16:29 | 48.62639 | 12.22103 | 2489 ft | 164 kts | 158° |
| 2026-05-08 16:29 | 48.61565 | 12.22707 | 2503 ft | 165 kts | 159° |
| 2026-05-08 16:29 | 48.60446 | 12.23139 | 2458 ft | 168 kts | 178° |
| 2026-05-08 16:29 | 48.59300 | 12.22779 | 2414 ft | 171 kts | 205° |
| 2026-05-08 16:30 | 48.58249 | 12.21906 | 2369 ft | 175 kts | 209° |
| 2026-05-08 16:30 | 48.57203 | 12.21039 | 2318 ft | 167 kts | 208° |
| 2026-05-08 16:30 | 48.56201 | 12.20209 | 2264 ft | 161 kts | 209° |
| 2026-05-08 16:30 | 48.55236 | 12.19390 | 2200 ft | 157 kts | 213° |
| 2026-05-08 16:31 | 48.54538 | 12.18220 | 2188 ft | 150 kts | 244° |
| 2026-05-08 16:31 | 48.54256 | 12.16746 | 2190 ft | 145 kts | 271° |
| 2026-05-08 16:31 | 48.54380 | 12.15268 | 2190 ft | 141 kts | 285° |
| 2026-05-08 16:31 | 48.54561 | 12.13827 | 2198 ft | 135 kts | 283° |
| 2026-05-08 16:32 | 48.54732 | 12.12469 | 2196 ft | 128 kts | 284° |
| 2026-05-08 16:32 | 48.54901 | 12.11158 | 2189 ft | 126 kts | 285° |
| 2026-05-08 16:32 | 48.55067 | 12.09880 | 2192 ft | 123 kts | 284° |
| 2026-05-08 16:32 | 48.55227 | 12.08619 | 2189 ft | 121 kts | 284° |
| 2026-05-08 16:33 | 48.55390 | 12.07383 | 2193 ft | 120 kts | 284° |
| 2026-05-08 16:33 | 48.55522 | 12.06139 | 2186 ft | 120 kts | 272° |
| 2026-05-08 16:33 | 48.55309 | 12.04928 | 2189 ft | 122 kts | 252° |
| 2026-05-08 16:33 | 48.55014 | 12.03739 | 2196 ft | 121 kts | 251° |
| 2026-05-08 16:34 | 48.54706 | 12.02553 | 2193 ft | 121 kts | 251° |
| 2026-05-08 16:34 | 48.54398 | 12.01371 | 2187 ft | 114 kts | 251° |
| 2026-05-08 16:34 | 48.54148 | 12.00360 | 2187 ft | 96 kts | 250° |
| 2026-05-08 16:34 | 48.53909 | 11.99453 | 2218 ft | 90 kts | 244° |
| 2026-05-08 16:35 | 48.53458 | 11.98754 | 2155 ft | 94 kts | 210° |
| 2026-05-08 16:35 | 48.52830 | 11.98370 | 1993 ft | 98 kts | 202° |
| 2026-05-08 16:35 | 48.52195 | 11.98041 | 1892 ft | 96 kts | 189° |
| 2026-05-08 16:35 | 48.51579 | 11.98147 | 1859 ft | 88 kts | 153° |
| 2026-05-08 16:36 | 48.51231 | 11.98485 | 1761 ft | 92 kts | 137° |
| 2026-05-08 16:36 | 48.50781 | 11.99517 | 1715 ft | 90 kts | 112° |
| 2026-05-08 16:36 | 48.50603 | 12.00407 | 1676 ft | 88 kts | 96° |
| 2026-05-08 16:36 | 48.50618 | 12.01330 | 1585 ft | 91 kts | 79° |
| 2026-05-08 16:37 | 48.50747 | 12.01957 | 1470 ft | 93 kts | 61° |
| 2026-05-08 16:37 | 48.51008 | 12.02814 | 1326 ft | 85 kts | 66° |
| 2026-05-08 16:37 | 48.51223 | 12.03552 | 1316 ft | 65 kts | 64° |
| 2026-05-08 16:37 | 48.51341 | 12.03860 | 1314 ft | 13 kts | 350° |
| 2026-05-08 16:38 | 48.51347 | 12.03794 | 1313 ft | 7 kts | 246° |
| 2026-05-08 16:38 | 48.51339 | 12.03739 | 1313 ft | 3 kts | 308° |
| 2026-05-08 16:38 | 48.51352 | 12.03732 | 1313 ft | 0 kts | 358° |